Time;durP1;ratioP1;P1;durP2;ratioP2;P2;SDS_P1;SDS_P2;PMS_P1;PMS_P2;Temp;Humidity;BMP_temperature;BMP_pressure;BME280_temperature;BME280_humidity;BME280_pressure;Samples;Min_cycle;Max_cycle;Signal;HPM_P1;HPM_P2
2021/10/02 00:37:07;;;;;;;;;2.00;2.00;;;;;21.88;47.28;101051.81;5021249;28;51080;-49
2021/10/02 00:44:59;;;;;;;;;4.50;3.50;;;;;21.88;47.16;101051.81;5030119;28;51084;-54
2021/10/02 00:47:27;;;;;;;;;2.25;2.00;;;;;21.88;46.79;101053.69;5018023;28;51152;-52
2021/10/02 00:49:55;;;;;;;;;2.00;2.00;;;;;21.87;47.01;101050.09;5016065;28;52092;-54
2021/10/02 00:52:21;;;;;;;;;3.75;2.50;;;;;21.87;46.93;101039.06;5022912;28;51053;-53
2021/10/02 00:54:47;;;;;;;;;3.50;3.50;;;;;21.87;47.04;101041.81;5026979;28;51156;-56
2021/10/02 00:57:13;;;;;;;;;3.50;3.00;;;;;21.87;47.14;101047.34;5025750;28;50969;-51
2021/10/02 00:59:39;;;;;;;;;3.00;3.00;;;;;21.87;46.74;101036.31;5031815;28;51318;-53
2021/10/02 01:02:13;;;;;;;;;2.00;1.00;;;;;21.87;47.24;101035.47;5032424;28;51314;-54
2021/10/02 01:05:06;;;;;;;;;1.75;1.75;;;;;21.85;46.80;101035.69;5034428;28;51203;-53
2021/10/02 01:07:43;;;;;;;;;3.00;2.25;;;;;21.86;46.70;101037.38;5016317;28;50934;-54
2021/10/02 01:10:38;;;;;;;;;3.25;2.75;;;;;21.86;47.14;101034.63;5015877;28;51959;-54
2021/10/02 01:13:17;;;;;;;;;4.25;2.25;;;;;21.85;46.82;101038.44;5025131;28;51163;-58
2021/10/02 01:15:43;;;;;;;;;3.00;3.00;;;;;21.86;46.80;101036.53;5025633;28;51125;-54
2021/10/02 01:18:16;;;;;;;;;2.00;2.00;;;;;21.85;46.61;101049.47;5015246;28;51081;-53
2021/10/02 01:21:12;;;;;;;;;2.00;2.00;;;;;21.84;46.68;101045.03;5015329;28;51810;-54
2021/10/02 01:23:43;;;;;;;;;3.00;2.00;;;;;21.84;46.75;101039.53;5016887;28;51227;-50
2021/10/02 01:26:47;;;;;;;;;2.00;2.00;;;;;21.84;47.21;101044.19;5033753;28;51078;-55
2021/10/02 01:29:15;;;;;;;;;1.50;1.50;;;;;21.84;46.72;101035.94;5022992;28;51486;-55
2021/10/02 01:31:55;;;;;;;;;4.25;3.00;;;;;21.83;46.96;101026.81;5026836;28;52929;-53
2021/10/02 01:47:48;;;;;;;;;2.25;2.25;;;;;21.81;47.13;100998.63;5024318;28;51083;-49
2021/10/02 01:50:15;;;;;;;;;2.00;2.00;;;;;21.81;47.03;100992.28;5034408;28;51153;-52
2021/10/02 01:52:44;;;;;;;;;2.50;2.50;;;;;21.82;46.73;100988.44;5035591;28;52103;-53
2021/10/02 01:55:11;;;;;;;;;2.75;2.75;;;;;21.81;47.07;100984.00;5041712;28;50973;-53
2021/10/02 01:57:44;;;;;;;;;1.25;1.25;;;;;21.81;46.68;100995.03;5024759;28;51259;-52
2021/10/02 02:00:11;;;;;;;;;3.00;3.00;;;;;21.80;46.68;100994.19;5041155;28;51017;-49
2021/10/02 02:02:40;;;;;;;;;2.00;2.00;;;;;21.80;46.86;100972.13;5035549;28;51852;-51
2021/10/02 02:05:09;;;;;;;;;2.75;2.00;;;;;21.80;47.14;100972.13;5041043;28;51341;-58
2021/10/02 02:07:36;;;;;;;;;2.00;1.00;;;;;21.80;47.19;100972.13;5035419;28;51203;-52
2021/10/02 02:10:06;;;;;;;;;2.25;2.00;;;;;21.79;47.03;100970.44;5033448;28;51025;-50
2021/10/02 02:12:33;;;;;;;;;1.50;1.50;;;;;21.80;47.13;100974.03;5024602;28;51803;-53
2021/10/02 02:15:04;;;;;;;;;2.00;2.00;;;;;21.80;46.84;100976.78;5032560;28;51163;-50
2021/10/02 02:17:32;;;;;;;;;2.50;1.00;;;;;21.79;47.22;100969.59;5024612;28;51185;-50
2021/10/02 02:20:00;;;;;;;;;3.00;2.00;;;;;21.80;47.19;100963.00;5040588;28;51108;-54
2021/10/02 02:22:26;;;;;;;;;2.75;2.00;;;;;21.79;46.64;100964.94;5037766;28;52011;-52
2021/10/02 02:24:51;;;;;;;;;2.50;2.50;;;;;21.80;47.20;100968.53;5040579;28;51011;-53
2021/10/02 02:27:17;;;;;;;;;2.00;2.00;;;;;21.79;47.18;100964.94;5037377;28;51614;-48
2021/10/02 02:29:43;;;;;;;;;1.00;1.00;;;;;21.79;47.22;100953.91;5022030;28;51163;-50
2021/10/02 02:32:08;;;;;;;;;4.50;3.00;;;;;21.78;46.93;100937.56;5031675;28;51256;-50
2021/10/02 02:34:34;;;;;;;;;1.50;1.50;;;;;21.77;46.66;100956.00;5039428;28;51064;-53
2021/10/02 02:37:00;;;;;;;;;1.75;1.75;;;;;21.78;47.04;100951.34;5030051;28;51018;-53
2021/10/02 02:39:26;;;;;;;;;2.50;2.00;;;;;21.76;47.20;100940.53;5029927;28;51051;-53
2021/10/02 02:41:52;;;;;;;;;1.25;1.25;;;;;21.76;47.07;100926.75;5023281;28;50963;-53
2021/10/02 02:44:19;;;;;;;;;2.00;2.00;;;;;21.76;46.84;100923.16;5032825;28;51113;-53
2021/10/02 02:46:54;;;;;;;;;1.25;1.25;;;;;21.76;46.83;100920.41;5037759;28;50930;-53
2021/10/02 02:49:35;;;;;;;;;2.50;2.00;;;;;21.75;47.22;100927.84;5032455;28;51298;-52
2021/10/02 02:52:07;;;;;;;;;2.00;2.00;;;;;21.76;47.14;100932.28;5029651;28;51128;-53
2021/10/02 02:54:36;;;;;;;;;3.00;2.00;;;;;21.77;47.18;100930.34;5038038;28;51139;-53
2021/10/02 02:57:10;;;;;;;;;2.25;2.25;;;;;21.76;46.81;100924.00;5037718;28;51049;-53
2021/10/02 02:59:42;;;;;;;;;3.00;3.00;;;;;21.76;47.10;100912.13;5036187;28;51029;-52
2021/10/02 03:02:14;;;;;;;;;1.00;1.00;;;;;21.75;47.19;100900.25;5033184;28;51965;-50
2021/10/02 03:04:40;;;;;;;;;1.50;1.50;;;;;21.75;46.82;100902.19;5025096;28;51241;-53
2021/10/02 03:07:08;;;;;;;;;1.00;1.00;;;;;21.74;46.96;100912.38;5017780;28;51076;-54
2021/10/02 03:09:39;;;;;;;;;1.00;1.00;;;;;21.74;47.31;100912.38;5029497;28;51209;-53
2021/10/02 03:12:05;;;;;;;;;2.00;1.50;;;;;21.75;47.17;100910.44;5026081;28;51204;-52
2021/10/02 03:14:31;;;;;;;;;2.00;2.00;;;;;21.75;47.02;100903.00;5017955;28;51010;-51
2021/10/02 03:16:58;;;;;;;;;1.50;1.50;;;;;21.75;46.80;100892.00;5027679;28;51006;-50
2021/10/02 03:19:24;;;;;;;;;1.00;1.00;;;;;21.74;46.85;100879.28;5020914;28;51179;-52
2021/10/02 03:21:51;;;;;;;;;3.25;2.00;;;;;21.74;47.10;100893.06;5021614;28;51155;-53
2021/10/02 03:24:20;;;;;;;;;1.00;1.00;;;;;21.75;46.95;100899.41;5017761;28;51128;-50
2021/10/02 03:26:48;;;;;;;;;1.50;1.50;;;;;21.75;47.10;100904.94;5023495;28;51106;-53
2021/10/02 03:29:14;;;;;;;;;2.00;2.00;;;;;21.74;46.91;100915.13;5033006;28;51060;-52
2021/10/02 03:31:40;;;;;;;;;1.00;1.00;;;;;21.75;47.35;100903.00;5033396;28;51924;-53
2021/10/02 03:34:06;;;;;;;;;1.00;1.00;;;;;21.75;47.29;100891.16;5028943;28;51417;-51
2021/10/02 03:36:31;;;;;;;;;2.00;2.00;;;;;21.75;47.34;100872.69;5017183;28;51254;-52
2021/10/02 03:38:57;;;;;;;;;4.00;3.00;;;;;21.75;46.58;100861.66;5017837;28;51134;-52
2021/10/02 03:41:23;;;;;;;;;3.00;1.00;;;;;21.75;47.01;100858.91;5020449;28;51850;-50
2021/10/02 03:43:48;;;;;;;;;2.25;0.50;;;;;21.76;47.22;100860.59;5027031;28;51079;-52
2021/10/02 03:46:14;;;;;;;;;1.00;1.00;;;;;21.75;47.16;100858.91;5035518;28;51152;-51
2021/10/02 03:48:39;;;;;;;;;5.00;1.25;;;;;21.75;47.00;100858.91;5031476;28;51086;-54
2021/10/02 03:51:05;;;;;;;;;1.00;1.00;;;;;21.76;47.36;100856.97;5030555;28;52276;-55
2021/10/02 03:53:30;;;;;;;;;4.75;2.00;;;;;21.76;46.85;100854.22;5022270;28;51105;-49
2021/10/02 03:55:57;;;;;;;;;2.25;1.50;;;;;21.76;47.20;100838.53;5031053;28;51083;-53
2021/10/02 03:58:22;;;;;;;;;2.75;1.00;;;;;21.75;46.85;100834.09;5018512;28;51045;-55
2021/10/02 04:00:48;;;;;;;;;2.50;2.00;;;;;21.75;47.25;100836.84;5023597;28;51758;-54
2021/10/02 04:03:13;;;;;;;;;1.00;1.00;;;;;21.75;46.76;100850.63;5034056;28;51122;-52
2021/10/02 04:05:38;;;;;;;;;1.00;1.00;;;;;21.75;47.23;100856.16;5029974;28;51073;-53
2021/10/02 04:08:04;;;;;;;;;1.00;1.00;;;;;21.75;46.90;100856.16;5036178;28;51210;-52
2021/10/02 04:10:30;;;;;;;;;1.50;1.50;;;;;21.75;46.98;100841.53;5035262;28;51498;-53
2021/10/02 04:12:55;;;;;;;;;3.75;1.00;;;;;21.75;47.24;100828.56;5019298;28;51076;-54
2021/10/02 04:15:20;;;;;;;;;2.75;1.00;;;;;21.74;47.09;100821.38;5024495;28;51085;-53
2021/10/02 04:17:46;;;;;;;;;1.00;1.00;;;;;21.74;47.42;100824.13;5032615;28;51278;-51
2021/10/02 04:20:11;;;;;;;;;1.75;1.75;;;;;21.75;46.95;100836.00;5018631;28;51122;-50
2021/10/02 04:22:37;;;;;;;;;1.00;0.50;;;;;21.75;46.83;100833.25;5030165;28;50978;-52
2021/10/02 04:25:02;;;;;;;;;3.00;1.00;;;;;21.73;46.65;100841.75;5027006;28;51042;-51
2021/10/02 04:27:28;;;;;;;;;3.00;1.25;;;;;21.73;47.03;100844.50;5029160;28;51118;-49
2021/10/02 04:29:53;;;;;;;;;0.75;0.75;;;;;21.74;46.91;100834.31;5026068;28;52439;-48
2021/10/02 04:32:19;;;;;;;;;3.00;2.00;;;;;21.73;47.05;100833.47;5018405;28;51166;-48
2021/10/02 04:34:44;;;;;;;;;4.00;3.00;;;;;21.73;46.77;100830.72;5019113;28;51069;-52
2021/10/02 04:37:10;;;;;;;;;1.50;1.00;;;;;21.73;47.48;100827.13;5023216;28;51311;-51
2021/10/02 04:39:36;;;;;;;;;2.00;1.75;;;;;21.74;47.22;100828.81;5026395;28;51860;-49
2021/10/02 04:42:01;;;;;;;;;2.00;1.50;;;;;21.73;47.44;100838.16;5018801;28;51150;-48
2021/10/02 04:44:27;;;;;;;;;1.00;1.00;;;;;21.73;47.13;100839.00;5024911;28;51196;-51
2021/10/02 04:46:53;;;;;;;;;3.00;1.00;;;;;21.73;47.26;100841.75;5020285;28;51057;-50
2021/10/02 04:49:18;;;;;;;;;0.50;0.50;;;;;21.73;46.89;100822.44;5035265;28;51036;-51
2021/10/02 04:51:44;;;;;;;;;1.00;1.00;;;;;21.73;47.23;100808.66;5023551;28;51133;-50
2021/10/02 04:54:10;;;;;;;;;1.25;1.25;;;;;21.72;47.15;100823.53;5015138;28;51164;-49
2021/10/02 04:56:37;;;;;;;;;3.00;1.50;;;;;21.73;47.46;100832.63;5033082;28;51069;-52
2021/10/02 04:59:02;;;;;;;;;1.25;0.75;;;;;21.73;46.95;100832.63;5019260;28;50981;-50
2021/10/02 05:01:27;;;;;;;;;2.00;2.00;;;;;21.73;47.20;100832.63;5028729;28;51169;-50
2021/10/02 05:03:53;;;;;;;;;1.25;1.25;;;;;21.73;46.85;100838.16;5033621;28;51077;-53
2021/10/02 05:06:19;;;;;;;;;2.50;2.00;;;;;21.72;47.31;100840.06;5029922;28;51375;-53
2021/10/02 05:08:45;;;;;;;;;1.00;1.00;;;;;21.72;47.37;100837.31;5018041;28;52018;-53
2021/10/02 05:11:11;;;;;;;;;1.25;1.25;;;;;21.72;47.01;100848.34;5024772;28;51096;-50
2021/10/02 05:13:37;;;;;;;;;2.75;1.00;;;;;21.71;46.92;100852.19;5019854;28;51206;-54
2021/10/02 05:16:03;;;;;;;;;2.00;2.00;;;;;21.71;47.08;100863.19;5035785;28;51327;-50
2021/10/02 05:18:28;;;;;;;;;1.00;1.00;;;;;21.72;46.90;100851.09;5029012;28;52734;-50
2021/10/02 05:20:53;;;;;;;;;2.00;2.00;;;;;21.71;47.34;100840.31;5035965;28;51049;-48
2021/10/02 05:23:19;;;;;;;;;1.50;1.50;;;;;21.72;47.18;100842.81;5024659;28;51116;-49
2021/10/02 05:25:44;;;;;;;;;4.50;2.75;;;;;21.72;47.44;100823.53;5034289;28;51056;-49
2021/10/02 05:28:10;;;;;;;;;3.00;1.25;;;;;21.72;47.32;100815.25;5016471;28;51890;-53
2021/10/02 05:30:36;;;;;;;;;1.25;0.50;;;;;21.71;47.37;100821.84;5021619;28;51032;-51
2021/10/02 05:33:03;;;;;;;;;4.00;1.75;;;;;21.72;47.11;100814.41;5024090;28;51321;-53
2021/10/02 05:35:33;;;;;;;;;1.25;1.25;;;;;21.73;47.46;100808.66;5031360;28;50996;-51
2021/10/02 05:38:00;;;;;;;;;1.75;1.75;;;;;21.72;47.31;100798.72;5034738;28;51023;-49
2021/10/02 05:40:26;;;;;;;;;1.00;1.00;;;;;21.72;47.25;100795.97;5024019;28;51302;-50
2021/10/02 05:42:51;;;;;;;;;2.00;1.25;;;;;21.73;47.44;100796.81;5024315;28;51130;-53
2021/10/02 05:45:16;;;;;;;;;3.00;1.75;;;;;21.71;47.02;100794.28;5016886;28;51143;-52
2021/10/02 05:47:42;;;;;;;;;2.00;2.00;;;;;21.72;47.42;100784.94;5015835;28;51001;-51
2021/10/02 05:50:07;;;;;;;;;1.00;1.00;;;;;21.72;47.35;100771.16;5021693;28;51988;-53
2021/10/02 05:52:33;;;;;;;;;1.00;1.00;;;;;21.71;47.37;100787.91;5027273;28;51066;-50
2021/10/02 05:54:58;;;;;;;;;1.00;1.00;;;;;21.71;46.90;100780.50;5015800;28;51015;-51
2021/10/02 05:57:24;;;;;;;;;1.25;1.25;;;;;21.71;47.11;100776.91;5031088;28;51701;-48
2021/10/02 05:59:49;;;;;;;;;2.00;2.00;;;;;21.70;47.22;100773.31;5024073;28;51047;-53
2021/10/02 06:02:15;;;;;;;;;2.25;1.00;;;;;21.72;47.18;100797.88;5023069;28;52262;-52
2021/10/02 06:04:41;;;;;;;;;3.00;3.00;;;;;21.73;47.25;100788.53;5033849;28;51073;-52
2021/10/02 06:07:06;;;;;;;;;2.50;2.50;;;;;21.73;47.67;100794.03;5023257;28;51986;-51
2021/10/02 06:09:32;;;;;;;;;2.50;2.50;;;;;21.74;47.66;100792.97;5024424;28;50997;-50
2021/10/02 06:11:58;;;;;;;;;1.00;1.00;;;;;21.74;47.96;100793.81;5016688;28;51092;-51
2021/10/02 06:14:23;;;;;;;;;2.75;1.00;;;;;21.74;47.22;100790.22;5025035;28;51141;-51
2021/10/02 06:16:48;;;;;;;;;2.00;2.00;;;;;21.74;47.18;100788.28;5024074;28;51020;-48
2021/10/02 06:19:14;;;;;;;;;3.25;0.75;;;;;21.73;47.55;100781.09;5029942;28;51142;-49
2021/10/02 06:21:40;;;;;;;;;4.50;1.00;;;;;21.73;47.54;100792.13;5034586;28;51330;-48
2021/10/02 06:24:06;;;;;;;;;2.00;2.00;;;;;21.73;47.08;100794.03;5023356;28;51296;-48
2021/10/02 06:26:35;;;;;;;;;2.00;2.00;;;;;21.72;47.72;100797.88;5020774;28;51755;-51
2021/10/02 06:29:00;;;;;;;;;1.25;1.00;;;;;21.71;47.50;100786.00;5032108;28;50958;-52
2021/10/02 06:31:25;;;;;;;;;1.75;1.50;;;;;21.71;47.25;100776.91;5021769;28;51124;-49
2021/10/02 06:33:51;;;;;;;;;2.50;1.25;;;;;21.70;47.60;100770.53;5031995;28;51149;-48
2021/10/02 06:36:16;;;;;;;;;2.25;2.25;;;;;21.70;47.59;100762.28;5027575;28;51054;-48
2021/10/02 06:38:42;;;;;;;;;2.00;2.00;;;;;21.70;47.28;100764.19;5018240;28;51325;-48
2021/10/02 06:41:08;;;;;;;;;2.25;1.00;;;;;21.71;47.05;100774.13;5031584;28;51179;-51
2021/10/02 06:43:34;;;;;;;;;1.50;1.00;;;;;21.70;47.20;100778.81;5036006;28;51076;-49
2021/10/02 06:46:00;;;;;;;;;1.75;1.00;;;;;21.70;47.18;100783.50;5032567;28;51843;-52
2021/10/02 06:48:25;;;;;;;;;2.00;2.00;;;;;21.71;47.49;100782.41;5034408;28;51268;-50
2021/10/02 06:50:51;;;;;;;;;1.25;1.25;;;;;21.71;47.15;100779.66;5025983;28;51194;-52
2021/10/02 06:53:16;;;;;;;;;1.25;1.00;;;;;21.71;47.09;100793.44;5025699;28;51262;-49
2021/10/02 06:55:42;;;;;;;;;2.00;2.00;;;;;21.70;47.13;100800.88;5018044;28;51185;-50
2021/10/02 06:58:07;;;;;;;;;3.00;3.00;;;;;21.66;47.54;100796.88;5018096;28;50957;-50
2021/10/02 07:00:34;;;;;;;;;3.00;3.00;;;;;21.66;47.33;100796.03;5018135;28;51128;-47
2021/10/02 07:02:59;;;;;;;;;4.00;3.00;;;;;21.63;47.35;100797.34;5022524;28;51171;-53
2021/10/02 07:05:24;;;;;;;;;4.25;2.25;;;;;21.59;47.70;100794.22;5017695;28;51864;-52
2021/10/02 07:07:50;;;;;;;;;5.25;2.00;;;;;21.57;47.45;100781.72;5018083;28;51154;-52
2021/10/02 07:10:17;;;;;;;;;3.25;2.00;;;;;21.55;47.72;100778.34;5032259;28;51004;-50
2021/10/02 07:12:43;;;;;;;;;3.50;2.00;;;;;21.53;47.37;100777.75;5024152;28;51743;-49
2021/10/02 07:15:09;;;;;;;;;3.50;2.00;;;;;21.51;47.81;100786.25;5029597;28;51935;-51
2021/10/02 07:17:34;;;;;;;;;1.50;1.50;;;;;21.50;47.16;100794.75;5029400;28;52245;-52
2021/10/02 07:19:59;;;;;;;;;2.00;2.00;;;;;21.47;47.29;100801.56;5018614;28;51191;-49
2021/10/02 07:22:25;;;;;;;;;2.00;2.00;;;;;21.47;47.26;100797.97;5027629;28;51045;-52
2021/10/02 07:24:50;;;;;;;;;4.25;3.00;;;;;21.44;47.83;100791.00;5035636;28;51124;-54
2021/10/02 07:27:15;;;;;;;;;2.75;1.75;;;;;21.43;47.35;100786.56;5047281;28;51233;-54
2021/10/02 07:29:41;;;;;;;;;1.00;1.00;;;;;21.44;47.44;100770.88;5027891;28;51436;-54
2021/10/02 07:32:07;;;;;;;;;4.75;2.50;;;;;21.44;47.61;100748.81;5017409;28;51382;-53
2021/10/02 07:34:32;;;;;;;;;3.25;3.25;;;;;21.45;47.51;100740.31;5026028;28;51267;-54
2021/10/02 07:36:57;;;;;;;;;2.25;2.25;;;;;21.46;48.07;100743.91;5026219;28;51037;-54
2021/10/02 07:39:23;;;;;;;;;2.00;2.00;;;;;21.48;47.92;100747.31;5027941;28;51052;-56
2021/10/02 07:41:50;;;;;;;;;3.00;2.00;;;;;21.49;47.88;100737.97;5030549;28;51461;-56
2021/10/02 07:44:20;;;;;;;;;5.00;2.00;;;;;21.50;48.01;100750.66;5022676;28;51817;-58
2021/10/02 07:46:51;;;;;;;;;3.50;3.50;;;;;21.53;48.08;100736.41;5023662;28;51066;-58
2021/10/02 07:49:19;;;;;;;;;6.00;2.25;;;;;21.54;48.02;100732.56;5027278;28;51961;-56
2021/10/02 07:51:46;;;;;;;;;6.00;4.00;;;;;21.55;48.53;100724.06;5025642;28;51232;-56
2021/10/02 07:54:12;;;;;;;;;2.75;2.00;;;;;21.57;48.19;100729.34;5028904;28;51312;-57
2021/10/02 07:56:38;;;;;;;;;3.00;3.00;;;;;21.59;48.15;100732.72;5028669;28;51330;-56
2021/10/02 07:59:06;;;;;;;;;3.50;2.50;;;;;21.60;48.25;100734.41;5033987;28;51171;-55
2021/10/02 08:01:35;;;;;;;;;1.50;1.50;;;;;21.60;48.29;100732.50;5026603;28;51334;-56
2021/10/02 08:04:05;;;;;;;;;2.00;2.00;;;;;21.61;48.27;100728.66;5021368;28;50962;-57
2021/10/02 08:06:31;;;;;;;;;2.75;2.75;;;;;21.62;48.58;100729.50;5033967;28;51408;-56
2021/10/02 08:08:58;;;;;;;;;1.50;1.50;;;;;21.64;48.66;100735.63;5035366;28;51091;-57
2021/10/02 08:11:23;;;;;;;;;2.00;2.00;;;;;21.65;48.40;100734.53;5034257;28;52593;-56
2021/10/02 08:13:49;;;;;;;;;3.25;2.00;;;;;21.66;48.47;100733.47;5030342;28;51771;-57
2021/10/02 08:16:16;;;;;;;;;2.75;2.00;;;;;21.69;48.46;100726.66;5026710;28;51100;-62
2021/10/02 08:18:43;;;;;;;;;3.00;2.75;;;;;21.71;48.05;100713.50;5033421;28;51337;-58
2021/10/02 08:21:10;;;;;;;;;4.75;3.00;;;;;21.72;48.21;100715.16;5027680;28;50959;-59
2021/10/02 08:23:37;;;;;;;;;3.25;2.00;;;;;21.73;47.66;100714.94;5033610;28;51122;-56
2021/10/02 08:26:04;;;;;;;;;3.00;2.00;;;;;21.74;48.20;100708.34;5020733;28;51425;-54
2021/10/02 08:28:32;;;;;;;;;2.00;2.00;;;;;21.75;48.16;100706.41;5026368;28;51166;-58
2021/10/02 08:30:59;;;;;;;;;2.00;2.00;;;;;21.75;47.56;100715.53;5033907;28;51202;-59
2021/10/02 08:33:25;;;;;;;;;2.75;2.75;;;;;21.75;47.81;100707.25;5024656;28;51036;-54
2021/10/02 08:35:50;;;;;;;;;4.00;2.75;;;;;21.76;47.59;100697.91;5025278;28;51061;-54
2021/10/02 08:38:16;;;;;;;;;2.75;2.00;;;;;21.77;47.92;100696.00;5027087;28;51294;-56
2021/10/02 08:40:43;;;;;;;;;2.00;2.00;;;;;21.76;47.95;100689.63;5025474;28;51185;-55
2021/10/02 08:43:10;;;;;;;;;4.00;2.00;;;;;21.79;47.41;100691.09;5034991;28;51904;-55
2021/10/02 08:45:37;;;;;;;;;6.50;2.75;;;;;21.81;47.21;100688.94;5026021;28;51183;-55
2021/10/02 08:48:04;;;;;;;;;4.25;2.25;;;;;21.83;47.60;100670.25;5031589;28;51029;-54
2021/10/02 08:50:29;;;;;;;;;3.00;2.00;;;;;21.83;47.21;100678.53;5026520;28;51147;-55
2021/10/02 08:52:55;;;;;;;;;2.00;2.00;;;;;21.84;47.27;100667.25;5024488;28;51650;-54
2021/10/02 08:55:22;;;;;;;;;3.00;1.75;;;;;21.85;47.23;100666.16;5024722;28;52117;-59
2021/10/02 08:57:49;;;;;;;;;2.75;2.50;;;;;21.87;47.93;100663.19;5026192;28;51284;-57
2021/10/02 09:00:21;;;;;;;;;3.25;3.00;;;;;21.88;47.48;100662.09;5032400;28;51456;-59
2021/10/02 09:02:48;;;;;;;;;3.75;3.50;;;;;21.90;47.73;100658.03;5019586;28;51516;-60
2021/10/02 09:05:17;;;;;;;;;2.00;2.00;;;;;21.95;47.26;100664.75;5026927;28;51062;-55
2021/10/02 09:07:44;;;;;;;;;2.50;2.00;;;;;21.96;47.47;100649.88;5025635;28;50994;-57
2021/10/02 09:10:11;;;;;;;;;3.00;3.00;;;;;21.99;47.78;100647.53;5024710;28;51029;-55
2021/10/02 09:12:41;;;;;;;;;5.50;3.50;;;;;22.01;47.31;100650.03;5033759;28;51306;-50
2021/10/02 09:15:07;;;;;;;;;3.75;2.00;;;;;22.05;47.98;100648.47;5030434;28;51253;-60
2021/10/02 09:17:33;;;;;;;;;6.00;3.25;;;;;22.07;47.67;100655.47;5031030;28;51083;-55
2021/10/02 09:19:59;;;;;;;;;3.00;1.00;;;;;22.08;47.81;100654.38;5031160;28;51365;-55
2021/10/02 09:22:27;;;;;;;;;2.75;2.75;;;;;22.10;47.54;100632.09;5027789;28;52274;-53
2021/10/02 09:24:55;;;;;;;;;3.00;2.00;;;;;22.13;47.77;100621.41;5031504;28;51510;-53
2021/10/02 09:27:26;;;;;;;;;2.50;2.25;;;;;22.16;48.08;100609.91;5029365;28;51158;-52
2021/10/02 09:29:57;;;;;;;;;2.50;2.00;;;;;22.18;47.39;100607.72;5029763;28;51148;-53
2021/10/02 09:32:36;;;;;;;;;3.25;2.75;;;;;22.24;47.99;100600.44;5018196;28;53263;-54
2021/10/02 09:35:08;;;;;;;;;2.50;2.50;;;;;22.29;47.88;100594.19;5023130;28;51075;-54
2021/10/02 09:37:37;;;;;;;;;7.00;3.25;;;;;22.32;47.72;100591.78;5014673;28;51187;-55
2021/10/02 09:40:20;;;;;;;;;4.00;4.00;;;;;22.35;47.77;100577.50;5014327;28;51056;-57
2021/10/02 09:42:51;;;;;;;;;2.50;2.50;;;;;22.38;47.36;100565.97;5013121;28;51748;-52
2021/10/02 09:45:20;;;;;;;;;4.00;2.75;;;;;22.41;47.39;100561.91;5022343;28;51117;-54
2021/10/02 09:47:49;;;;;;;;;2.00;2.00;;;;;22.42;47.66;100550.63;5033128;28;51064;-53
2021/10/02 09:50:18;;;;;;;;;6.00;3.00;;;;;22.44;47.29;100540.19;5033909;28;51133;-55
2021/10/02 09:52:45;;;;;;;;;4.25;4.25;;;;;22.46;47.16;100538.00;5036201;28;51121;-58
2021/10/02 09:55:24;;;;;;;;;3.50;3.50;;;;;22.47;47.62;100545.22;5029775;28;51074;-54
2021/10/02 09:57:52;;;;;;;;;5.50;3.00;;;;;22.51;47.09;100531.78;5017071;28;51153;-53
2021/10/02 10:00:21;;;;;;;;;2.00;2.00;;;;;22.52;47.41;100508.63;5020799;28;51010;-55
2021/10/02 10:02:47;;;;;;;;;2.25;2.00;;;;;22.55;47.20;100501.75;5017185;28;50948;-54
2021/10/02 10:05:13;;;;;;;;;3.25;2.25;;;;;22.55;46.96;100494.31;5024017;28;51093;-54
2021/10/02 10:07:39;;;;;;;;;6.00;3.25;;;;;22.57;46.88;100497.66;5027114;28;51314;-55
2021/10/02 10:10:14;;;;;;;;;2.50;2.50;;;;;22.60;47.39;100486.13;5024714;28;51928;-56
2021/10/02 10:12:41;;;;;;;;;4.00;3.00;;;;;22.61;46.98;100473.16;5033260;28;51107;-54
2021/10/02 10:15:27;;;;;;;;;2.00;2.00;;;;;22.62;47.40;100466.56;5032216;28;51055;-55
2021/10/02 10:17:52;;;;;;;;;3.00;2.75;;;;;22.63;47.18;100458.03;5027092;28;53833;-52
2021/10/02 10:20:18;;;;;;;;;5.00;4.00;;;;;22.64;47.69;100456.13;5029200;28;51437;-54
2021/10/02 10:22:44;;;;;;;;;5.75;2.50;;;;;22.64;47.45;100448.69;5027113;28;51161;-54
2021/10/02 10:25:11;;;;;;;;;2.50;1.25;;;;;22.65;47.78;100428.25;5034005;28;51148;-58
2021/10/02 10:27:42;;;;;;;;;6.25;3.00;;;;;22.67;47.00;100430.78;5026407;28;51146;-56
2021/10/02 10:30:24;;;;;;;;;4.50;3.75;;;;;22.67;47.66;100414.22;5023987;28;51195;-55
2021/10/02 10:32:59;;;;;;;;;2.50;2.50;;;;;22.67;47.25;100409.53;5029622;28;52704;-55
2021/10/02 10:35:28;;;;;;;;;2.50;2.50;;;;;22.67;47.52;100419.72;5029162;28;51206;-56
2021/10/02 10:37:53;;;;;;;;;3.75;3.75;;;;;22.67;46.96;100417.81;5024479;28;51523;-57
2021/10/02 10:40:19;;;;;;;;;4.00;4.00;;;;;22.65;48.02;100417.22;5028131;28;51113;-53
2021/10/02 10:42:45;;;;;;;;;11.00;8.50;;;;;22.69;49.13;100425.84;5020542;28;52416;-55
2021/10/02 10:45:11;;;;;;;;;11.00;7.50;;;;;22.70;49.26;100411.78;5030094;28;51642;-56
2021/10/02 10:47:37;;;;;;;;;11.25;7.25;;;;;22.75;49.17;100427.63;5027842;28;50983;-56
2021/10/02 10:50:03;;;;;;;;;7.25;5.75;;;;;22.75;49.48;100416.56;5034000;28;51354;-56
2021/10/02 10:52:38;;;;;;;;;7.75;7.00;;;;;22.79;49.23;100414.16;5034978;28;52003;-55
2021/10/02 10:55:12;;;;;;;;;11.75;8.25;;;;;22.81;49.45;100401.75;5022720;28;51563;-53
2021/10/02 10:57:45;;;;;;;;;9.00;6.75;;;;;22.82;49.52;100397.06;5021429;28;51137;-55
2021/10/02 11:00:21;;;;;;;;;6.75;6.75;;;;;22.83;50.24;100394.09;5031124;28;51398;-54
2021/10/02 11:02:51;;;;;;;;;5.50;4.25;;;;;22.83;49.79;100377.53;5026598;28;51919;-54
2021/10/02 11:05:35;;;;;;;;;9.25;8.00;;;;;22.84;50.19;100370.94;5027049;28;51175;-54
2021/10/02 11:08:15;;;;;;;;;5.00;5.00;;;;;22.85;50.22;100383.66;5018602;28;51200;-56
2021/10/02 11:10:41;;;;;;;;;7.25;6.75;;;;;22.85;49.77;100378.13;5020432;28;51385;-54
2021/10/02 11:13:17;;;;;;;;;6.50;6.00;;;;;22.85;49.99;100375.38;5028450;28;50929;-55
2021/10/02 11:15:43;;;;;;;;;7.00;5.50;;;;;22.85;50.17;100364.31;5021942;28;51254;-55
2021/10/02 11:18:45;;;;;;;;;16.00;14.25;;;;;22.85;50.38;100355.22;5025640;28;51225;-55
2021/10/02 11:21:16;;;;;;;;;63.00;45.00;;;;;22.85;50.15;100358.81;5028974;28;51179;-59
2021/10/02 11:23:53;;;;;;;;;91.25;77.00;;;;;22.86;50.69;100354.13;5024744;28;51912;-60
2021/10/02 11:26:55;;;;;;;;;309.75;259.75;;;;;22.86;50.76;100346.66;5029303;28;51760;-60
2021/10/02 11:29:29;;;;;;;;;257.50;220.00;;;;;22.86;50.88;100343.06;5018004;28;51266;-59
2021/10/02 11:32:22;;;;;;;;;244.75;211.50;;;;;22.87;51.52;100330.94;5028647;28;51130;-59
2021/10/02 11:35:15;;;;;;;;;252.50;209.00;;;;;22.88;51.21;100329.84;5026679;28;51162;-59
2021/10/02 11:37:56;;;;;;;;;234.25;197.25;;;;;22.88;51.36;100322.38;5034059;28;51248;-59
2021/10/02 11:40:40;;;;;;;;;240.25;198.00;;;;;22.89;51.84;100314.94;5035530;28;51227;-59
2021/10/02 11:43:26;;;;;;;;;235.50;187.25;;;;;22.90;51.45;100311.09;5029039;28;51213;-58
2021/10/02 11:46:01;;;;;;;;;224.50;190.75;;;;;22.90;51.47;100313.84;5027856;28;51817;-58
2021/10/02 11:48:44;;;;;;;;;213.75;190.75;;;;;22.91;51.43;100287.91;5029814;28;51164;-59
2021/10/02 11:51:18;;;;;;;;;203.50;177.00;;;;;22.90;51.45;100281.53;5029775;28;51201;-58
2021/10/02 11:53:46;;;;;;;;;212.00;178.75;;;;;22.90;51.87;100266.91;5034596;28;51001;-59
2021/10/02 11:56:16;;;;;;;;;188.00;164.00;;;;;22.90;51.27;100276.03;5032966;28;51179;-58
2021/10/02 11:58:44;;;;;;;;;174.00;150.75;;;;;22.89;51.20;100268.81;5033378;28;51416;-50
2021/10/02 12:01:23;;;;;;;;;56.75;43.50;;;;;22.87;49.13;100259.13;5031299;28;51250;-53
2021/10/02 12:03:56;;;;;;;;;23.75;21.25;;;;;22.82;48.77;100256.25;5031585;28;51236;-54
2021/10/02 12:06:22;;;;;;;;;9.75;9.00;;;;;22.70;48.06;100248.03;5030434;28;51994;-54
2021/10/02 12:08:48;;;;;;;;;7.25;6.00;;;;;22.60;48.36;100247.88;5032345;28;51147;-59
2021/10/02 12:11:14;;;;;;;;;8.75;6.50;;;;;22.55;48.43;100228.50;5032989;28;51010;-57
2021/10/02 12:13:51;;;;;;;;;7.75;6.00;;;;;22.53;48.44;100203.91;5033694;28;51360;-56
2021/10/02 12:16:19;;;;;;;;;6.00;4.25;;;;;22.51;48.46;100208.84;5035327;28;51733;-57
2021/10/02 12:19:08;;;;;;;;;5.75;5.00;;;;;22.50;48.29;100201.63;5039846;28;51106;-57
2021/10/02 12:21:42;;;;;;;;;8.00;6.75;;;;;22.49;48.79;100191.69;5046593;28;50973;-56
2021/10/02 12:24:14;;;;;;;;;8.00;4.75;;;;;22.51;48.51;100194.19;5036910;28;51188;-56
2021/10/02 12:26:48;;;;;;;;;5.75;5.75;;;;;22.51;48.96;100188.66;5034972;28;51467;-57